Japan Airlines Virtual Airport Information Service

Taiwan Taoyuan International Airport

ICAO: RCTP Country: Taiwan
Latitude: 25.0777 Longitude: 121.233
Latest Arrival : CAL836 (VTBS-RCTP) Latest Departure : CAL703 (RCTP-RPLL)


WX CaptureLIVE
Data provided by noaa.gov | Fetched at 12:38:04

METAR : RCTP 061200Z 09004KT 040V110 9999 FEW020 31/25 Q1009 NOSIG RMK A2982

TAF : RCTP 061100Z 0612/0718 09005KT 9999 FEW020 BKN220 TEMPO 0612/0615 15005KT BECMG 0615/0617 21005KT FEW014 BKN032 TEMPO 0620/0624 26005KT FEW010 BKN014 BKN030 BECMG 0700/0702 30005KT TEMPO 0706/0712 35008KT


Runway Data for RCTP
Data provided by openaviationdata.com

Runway ID Mag Var Hdg Length Elevation Surface ILS Freq ILS Id ILS Slope
5 -3 52° 12020 ft 107 ft Concrete 111.1 ITIA 3
6 -3 52° 11001 ft 107 ft Concrete 110.7 ICKS 3
23 -3 232° 12020 ft 107 ft Concrete 109.3 ITYA 3
24 -3 232° 11001 ft 107 ft Concrete 111.9 ICJN 3

Taiwan Taoyuan International Airport, Taiwan
Use only for reference purposes



Not for navigational purposes.